createdAt,value
2019-05-02T00:01:47.415Z,34.23
2019-05-02T00:03:52.592Z,34.87
2019-05-02T00:05:58.141Z,34.87
2019-05-02T00:08:03.520Z,33.60
2019-05-02T00:10:10.743Z,33.90
2019-05-02T00:12:18.606Z,33.80
2019-05-02T00:14:24.694Z,32.77
2019-05-02T00:16:30.602Z,35.33
2019-05-02T00:18:39.086Z,32.70
2019-05-02T00:20:44.713Z,33.80
2019-05-02T00:22:52.175Z,34.17
2019-05-02T00:24:57.414Z,34.23
2019-05-02T00:27:03.201Z,33.97
2019-05-02T00:29:08.407Z,34.23
2019-05-02T00:31:13.519Z,35.83
2019-05-02T00:33:18.951Z,33.57
2019-05-02T00:35:24.421Z,33.63
2019-05-02T00:37:29.773Z,33.23
2019-05-02T00:39:35.201Z,32.27
2019-05-02T00:41:40.684Z,33.57
2019-05-02T00:43:45.889Z,33.57
2019-05-02T00:45:55.025Z,34.77
2019-05-02T00:48:04.129Z,32.10
2019-05-02T00:50:11.334Z,31.83
2019-05-02T00:52:17.397Z,33.50
2019-05-02T00:54:24.270Z,32.00
2019-05-02T00:56:29.759Z,34.03
2019-05-02T00:58:35.438Z,32.77
2019-05-02T01:01:00.402Z,32.83
2019-05-02T01:03:11.133Z,33.73
2019-05-02T01:05:20.352Z,32.63
2019-05-02T01:07:26.986Z,31.83
2019-05-02T01:09:35.205Z,34.10
2019-05-02T01:11:40.699Z,33.70
2019-05-02T01:13:50.391Z,33.30
2019-05-02T01:15:53.071Z,32.53
2019-05-02T01:18:01.032Z,33.57
2019-05-02T01:20:06.253Z,32.73
2019-05-02T01:22:15.925Z,32.03
2019-05-02T01:24:18.576Z,32.40
2019-05-02T01:26:29.300Z,30.60
2019-05-02T01:29:06.669Z,33.17
2019-05-02T01:31:20.291Z,31.80
2019-05-02T01:33:36.916Z,31.97
2019-05-02T01:35:47.748Z,31.10
2019-05-02T01:38:10.177Z,31.00
2019-05-02T01:40:17.811Z,31.33
2019-05-02T01:42:22.642Z,32.67
2019-05-02T01:44:31.032Z,32.20
2019-05-02T01:46:36.097Z,32.47
2019-05-02T01:48:45.591Z,32.67
2019-05-02T01:50:48.596Z,30.27
2019-05-02T01:52:58.411Z,32.30
2019-05-02T01:55:00.520Z,32.37
2019-05-02T01:57:08.691Z,32.97
2019-05-02T01:59:13.506Z,31.93
2019-05-02T02:01:23.201Z,32.67
2019-05-02T02:03:28.267Z,30.83
2019-05-02T02:05:33.807Z,31.00
2019-05-02T02:07:38.984Z,32.40
2019-05-02T02:09:45.790Z,32.43
2019-05-02T02:11:51.055Z,32.23
2019-05-02T02:13:56.185Z,30.27
2019-05-02T02:16:04.538Z,32.77
2019-05-02T02:18:08.254Z,32.20
2019-05-02T02:20:15.739Z,33.17
2019-05-02T02:22:51.897Z,29.50
2019-05-02T02:25:32.155Z,31.23
2019-05-02T02:27:36.154Z,31.13
2019-05-02T02:29:43.984Z,32.00
2019-05-02T02:31:49.294Z,30.67
2019-05-02T02:33:54.764Z,29.53
2019-05-02T02:36:00.161Z,30.37
2019-05-02T02:38:05.474Z,31.20
2019-05-02T02:40:10.993Z,31.50
2019-05-02T02:42:16.105Z,31.27
2019-05-02T02:44:39.912Z,31.20
2019-05-02T02:46:46.042Z,32.03
2019-05-02T02:48:51.211Z,31.70
2019-05-02T02:50:56.935Z,32.00
2019-05-02T02:53:02.125Z,33.07
2019-05-02T02:55:07.477Z,32.00
2019-05-02T02:57:20.878Z,31.80
2019-05-02T02:59:26.223Z,31.63
2019-05-02T03:01:29.450Z,31.77
2019-05-02T03:03:35.257Z,32.07
2019-05-02T03:05:40.885Z,32.43
2019-05-02T03:07:46.647Z,33.40
2019-05-02T03:09:51.826Z,31.13
2019-05-02T03:12:15.265Z,31.67
2019-05-02T03:14:25.372Z,30.97
2019-05-02T03:16:31.625Z,31.27
2019-05-02T03:18:40.528Z,31.27
2019-05-02T03:20:44.058Z,32.37
2019-05-02T03:22:49.478Z,32.63
2019-05-02T03:24:55.028Z,34.23
2019-05-02T03:27:00.851Z,32.60
2019-05-02T03:29:06.132Z,32.67
2019-05-02T03:31:24.402Z,33.13
2019-05-02T03:33:19.085Z,32.53
2019-05-02T03:35:40.842Z,32.07
2019-05-02T03:37:31.770Z,33.33
2019-05-02T03:39:38.557Z,31.33
2019-05-02T03:41:44.287Z,33.13
2019-05-02T03:43:50.419Z,32.13
2019-05-02T03:45:55.793Z,31.53
2019-05-02T03:48:02.394Z,31.43
2019-05-02T03:50:09.389Z,32.03
2019-05-02T03:52:15.387Z,31.13
2019-05-02T03:54:20.774Z,31.43
2019-05-02T03:56:26.572Z,31.50
2019-05-02T03:58:32.913Z,30.37
2019-05-02T04:00:38.015Z,30.47
2019-05-02T04:02:44.132Z,30.27
2019-05-02T04:04:54.084Z,30.60
2019-05-02T04:07:01.175Z,32.03
2019-05-02T04:09:08.219Z,30.17
2019-05-02T04:11:38.348Z,28.23
2019-05-02T04:13:38.195Z,29.87
2019-05-02T04:15:43.489Z,29.97
2019-05-02T04:17:49.157Z,30.87
2019-05-02T04:19:54.362Z,31.47
2019-05-02T04:22:01.640Z,32.27
2019-05-02T04:24:13.337Z,35.97
2019-05-02T04:26:16.887Z,32.27
2019-05-02T04:28:24.366Z,33.10
2019-05-02T04:30:29.805Z,30.90
2019-05-02T04:32:35.294Z,31.80
2019-05-02T04:34:40.457Z,31.57
2019-05-02T04:36:46.828Z,33.53
2019-05-02T04:38:52.979Z,31.33
2019-05-02T04:40:59.161Z,30.90
2019-05-02T04:43:08.229Z,30.43
2019-05-02T04:45:25.241Z,30.23
2019-05-02T04:47:21.936Z,31.53
2019-05-02T04:49:29.777Z,32.47
2019-05-02T04:51:33.783Z,31.43
2019-05-02T04:53:44.331Z,31.73
2019-05-02T04:55:52.488Z,31.90
2019-05-02T04:57:52.952Z,36.03
2019-05-02T05:00:06.386Z,35.73
2019-05-02T05:02:08.713Z,32.57
2019-05-02T05:04:13.039Z,33.60
2019-05-02T05:06:19.016Z,36.23
2019-05-02T05:08:26.512Z,35.83
2019-05-02T05:10:40.165Z,34.97
2019-05-02T05:12:41.810Z,35.47
2019-05-02T05:14:47.462Z,39.97
2019-05-02T05:16:55.616Z,38.50
2019-05-02T05:19:00.099Z,35.70
2019-05-02T05:21:10.315Z,39.10
2019-05-02T05:23:18.227Z,38.57
2019-05-02T05:25:27.867Z,39.43
2019-05-02T05:27:32.879Z,39.47
2019-05-02T05:29:38.069Z,39.37
2019-05-02T05:31:43.198Z,41.80
2019-05-02T05:33:49.017Z,42.10
2019-05-02T05:35:54.505Z,41.97
2019-05-02T05:37:59.942Z,41.40
2019-05-02T05:40:05.496Z,41.17
2019-05-02T05:42:10.848Z,41.07
2019-05-02T05:44:18.072Z,42.13
2019-05-02T05:46:23.302Z,41.77
2019-05-02T05:48:32.138Z,42.03
2019-05-02T05:50:37.684Z,40.73
2019-05-02T05:52:43.110Z,40.30
2019-05-02T05:54:48.182Z,40.87
2019-05-02T05:56:53.285Z,39.70
2019-05-02T05:58:59.231Z,41.83
2019-05-02T06:01:09.312Z,40.67
2019-05-02T06:03:14.165Z,42.00
2019-05-02T06:05:18.337Z,41.90
2019-05-02T06:07:23.902Z,39.90
2019-05-02T06:09:31.256Z,41.10
2019-05-02T06:11:36.911Z,40.70
2019-05-02T06:13:48.610Z,39.13
2019-05-02T06:16:01.675Z,40.07
2019-05-02T06:17:59.972Z,40.73
2019-05-02T06:20:04.586Z,38.87
2019-05-02T06:22:09.810Z,40.43
2019-05-02T06:24:17.078Z,39.63
2019-05-02T06:26:22.190Z,40.53
2019-05-02T06:28:27.797Z,38.30
2019-05-02T06:30:33.023Z,38.47
2019-05-02T06:32:38.087Z,38.50
2019-05-02T06:34:46.507Z,38.70
2019-05-02T06:36:50.447Z,37.53
2019-05-02T06:38:56.614Z,37.90
2019-05-02T06:41:02.493Z,36.83
2019-05-02T06:43:09.872Z,35.77
2019-05-02T06:45:15.370Z,33.33
2019-05-02T06:47:20.952Z,33.93
2019-05-02T06:49:26.157Z,32.87
2019-05-02T06:51:31.345Z,31.83
2019-05-02T06:53:41.448Z,32.10
2019-05-02T06:55:44.061Z,29.63
2019-05-02T06:57:51.736Z,30.27
2019-05-02T06:59:56.571Z,30.07
2019-05-02T07:02:01.993Z,29.83
2019-05-02T07:04:07.192Z,29.30
2019-05-02T07:06:12.401Z,30.30
2019-05-02T07:08:17.947Z,30.70
2019-05-02T07:10:25.433Z,30.97
2019-05-02T07:12:30.491Z,30.23
2019-05-02T07:14:36.534Z,32.03
2019-05-02T07:16:54.569Z,32.37
2019-05-02T07:19:03.905Z,33.43
2019-05-02T07:21:12.224Z,34.57
2019-05-02T07:23:18.319Z,31.63
2019-05-02T07:25:23.539Z,34.53
2019-05-02T07:27:33.619Z,34.37
2019-05-02T07:29:35.615Z,34.60
2019-05-02T07:31:42.994Z,34.00
2019-05-02T07:33:48.005Z,35.07
2019-05-02T07:35:55.257Z,33.20
2019-05-02T07:38:01.054Z,34.97
2019-05-02T07:40:07.697Z,33.77
2019-05-02T07:42:14.895Z,34.27
2019-05-02T07:44:20.375Z,33.50
2019-05-02T07:46:25.561Z,32.57
2019-05-02T07:48:31.375Z,32.33
2019-05-02T07:50:36.571Z,31.43
2019-05-02T07:52:42.118Z,31.83
2019-05-02T07:54:47.249Z,30.20
2019-05-02T07:56:53.466Z,30.27
2019-05-02T07:58:59.190Z,30.10
2019-05-02T08:01:08.176Z,29.97
2019-05-02T08:03:12.287Z,32.23
2019-05-02T08:05:21.513Z,30.87
2019-05-02T08:07:29.970Z,31.77
2019-05-02T08:09:32.608Z,30.67
2019-05-02T08:11:38.557Z,30.70
2019-05-02T08:13:44.439Z,31.93
2019-05-02T08:15:50.783Z,31.20
2019-05-02T08:17:56.563Z,31.13
2019-05-02T08:20:04.764Z,31.37
2019-05-02T08:22:13.298Z,31.73
2019-05-02T08:24:16.188Z,31.80
2019-05-02T08:26:23.380Z,32.87
2019-05-02T08:28:33.584Z,32.27
2019-05-02T08:30:42.181Z,32.37
2019-05-02T08:32:47.295Z,31.37
2019-05-02T08:34:53.519Z,31.40
2019-05-02T08:37:03.018Z,31.23
2019-05-02T08:39:07.412Z,32.37
2019-05-02T08:41:12.532Z,31.80
2019-05-02T08:43:17.650Z,31.23
2019-05-02T08:45:22.836Z,29.17
2019-05-02T08:47:30.225Z,30.17
2019-05-02T08:49:35.541Z,29.43
2019-05-02T08:51:41.599Z,29.33
2019-05-02T08:53:47.046Z,29.33
2019-05-02T08:55:52.252Z,28.03
2019-05-02T08:57:57.753Z,29.40
2019-05-02T09:00:02.953Z,27.97
2019-05-02T09:02:08.151Z,27.77
2019-05-02T09:04:13.962Z,28.70
2019-05-02T09:06:22.485Z,27.90
2019-05-02T09:08:27.340Z,26.77
2019-05-02T09:10:32.453Z,27.47
2019-05-02T09:12:42.307Z,27.30
2019-05-02T09:14:44.848Z,27.27
2019-05-02T09:16:52.377Z,27.67
2019-05-02T09:18:58.079Z,28.27
2019-05-02T09:21:03.288Z,25.93
2019-05-02T09:23:08.951Z,27.97
2019-05-02T09:25:15.232Z,26.10
2019-05-02T09:27:22.485Z,25.70
2019-05-02T09:29:27.733Z,25.57
2019-05-02T09:31:36.807Z,27.23
2019-05-02T09:33:42.442Z,26.33
2019-05-02T09:35:47.591Z,26.90
2019-05-02T09:37:54.321Z,27.80
2019-05-02T09:39:59.513Z,30.87
2019-05-02T09:42:06.605Z,28.87
2019-05-02T09:44:14.611Z,28.97
2019-05-02T09:46:19.596Z,30.13
2019-05-02T09:48:26.765Z,30.60
2019-05-02T09:50:34.360Z,31.20
2019-05-02T09:52:40.810Z,30.63
2019-05-02T09:54:46.210Z,31.43
2019-05-02T09:56:52.386Z,30.13
2019-05-02T09:59:04.825Z,29.73
2019-05-02T10:01:13.824Z,29.07
2019-05-02T10:03:19.244Z,28.17
2019-05-02T10:05:24.756Z,29.93
2019-05-02T10:07:29.912Z,29.57
2019-05-02T10:09:35.572Z,27.80
2019-05-02T10:11:41.791Z,29.83
2019-05-02T10:13:47.196Z,28.63
2019-05-02T10:15:52.886Z,28.77
2019-05-02T10:18:08.718Z,29.43
2019-05-02T10:20:06.247Z,28.40
2019-05-02T10:22:12.287Z,28.47
2019-05-02T10:24:17.787Z,29.10
2019-05-02T10:26:24.584Z,29.03
2019-05-02T10:28:31.706Z,26.93
2019-05-02T10:30:37.499Z,27.90
2019-05-02T10:32:47.187Z,27.60
2019-05-02T10:34:55.096Z,29.00
2019-05-02T10:36:58.925Z,28.17
2019-05-02T10:39:07.381Z,28.03
2019-05-02T10:41:12.736Z,27.20
2019-05-02T10:43:17.930Z,25.80
2019-05-02T10:45:23.150Z,25.57
2019-05-02T10:47:28.262Z,25.00
2019-05-02T10:49:53.772Z,25.03
2019-05-02T10:51:58.975Z,23.70
2019-05-02T10:54:08.009Z,23.77
2019-05-02T10:56:13.107Z,23.07
2019-05-02T10:58:18.568Z,21.97
2019-05-02T11:00:32.365Z,23.90
2019-05-02T11:02:55.291Z,24.00
2019-05-02T11:05:05.101Z,24.03
2019-05-02T11:07:11.970Z,23.93
2019-05-02T11:09:22.522Z,24.63
2019-05-02T11:11:24.285Z,23.70
2019-05-02T11:13:45.856Z,24.03
2019-05-02T11:16:13.123Z,23.07
2019-05-02T11:18:38.784Z,23.13
2019-05-02T11:20:29.500Z,24.33
2019-05-02T11:22:35.029Z,23.40
2019-05-02T11:24:41.778Z,21.73
2019-05-02T11:26:47.504Z,21.60
2019-05-02T11:28:53.078Z,22.00
2019-05-02T11:31:02.654Z,23.13
2019-05-02T11:33:05.333Z,21.50
2019-05-02T11:35:12.195Z,20.60
2019-05-02T11:37:18.265Z,21.07
2019-05-02T11:39:31.093Z,20.10
2019-05-02T11:41:31.726Z,21.53
2019-05-02T11:43:42.448Z,21.93
2019-05-02T11:45:45.683Z,21.57
2019-05-02T11:47:54.436Z,20.67
2019-05-02T11:49:58.382Z,20.87
2019-05-02T11:52:04.704Z,21.03
2019-05-02T11:54:10.233Z,21.50
2019-05-02T11:56:15.743Z,22.80
2019-05-02T11:58:23.004Z,22.50
2019-05-02T12:00:28.447Z,21.57
2019-05-02T12:02:58.146Z,20.43
2019-05-02T12:05:02.511Z,20.33
2019-05-02T12:07:08.371Z,20.83
2019-05-02T12:09:14.156Z,20.83
2019-05-02T12:11:19.495Z,20.27
2019-05-02T12:13:24.979Z,21.87
2019-05-02T12:15:32.307Z,19.90
2019-05-02T12:17:37.602Z,21.93
2019-05-02T12:19:43.046Z,20.80
2019-05-02T12:21:55.866Z,20.77
2019-05-02T12:24:02.253Z,20.50
2019-05-02T12:26:07.964Z,20.67
2019-05-02T12:28:13.298Z,22.00
2019-05-02T12:30:18.511Z,19.50
2019-05-02T12:32:23.955Z,20.33
2019-05-02T12:34:29.222Z,19.07
2019-05-02T12:36:34.400Z,18.57
2019-05-02T12:38:39.588Z,17.50
2019-05-02T12:40:44.723Z,17.57
2019-05-02T12:42:52.461Z,18.07
2019-05-02T12:44:57.189Z,18.97
2019-05-02T12:47:02.742Z,19.63
2019-05-02T12:49:21.819Z,18.73
2019-05-02T12:51:15.827Z,19.17
2019-05-02T12:53:21.928Z,19.87
2019-05-02T12:55:27.594Z,18.90
2019-05-02T12:57:32.734Z,18.77
2019-05-02T12:59:37.856Z,17.53
2019-05-02T13:01:43.474Z,17.17
2019-05-02T13:03:54.932Z,20.20
2019-05-02T13:06:00.116Z,18.73
2019-05-02T13:08:05.334Z,19.73
2019-05-02T13:10:12.546Z,18.80
2019-05-02T13:12:23.435Z,16.50
2019-05-02T13:14:31.901Z,18.97
2019-05-02T13:16:37.355Z,17.83
2019-05-02T13:18:42.536Z,17.73
2019-05-02T13:20:48.959Z,17.33
2019-05-02T13:23:10.503Z,17.13
2019-05-02T13:25:17.965Z,17.23
2019-05-02T13:27:23.504Z,17.30
2019-05-02T13:29:28.827Z,17.23
2019-05-02T13:31:52.362Z,18.70
2019-05-02T13:34:06.601Z,16.90
2019-05-02T13:36:42.971Z,16.60
2019-05-02T13:38:48.089Z,14.80
2019-05-02T13:40:53.584Z,17.57
2019-05-02T13:42:59.094Z,17.50
2019-05-02T13:45:12.613Z,16.17
2019-05-02T13:47:21.855Z,16.60
2019-05-02T13:49:27.065Z,16.87
2019-05-02T13:51:32.575Z,16.57
2019-05-02T13:53:43.288Z,15.80
2019-05-02T13:55:54.705Z,16.10
2019-05-02T13:58:02.153Z,15.00
2019-05-02T14:00:08.277Z,16.47
2019-05-02T14:02:38.556Z,19.60
2019-05-02T14:04:43.768Z,15.83
2019-05-02T14:06:49.222Z,17.20
2019-05-02T14:08:59.880Z,16.33
2019-05-02T14:11:23.053Z,15.40
2019-05-02T14:13:29.004Z,16.40
2019-05-02T14:15:38.000Z,16.60
2019-05-02T14:17:43.478Z,16.40
2019-05-02T14:19:48.661Z,15.07
2019-05-02T14:21:54.138Z,15.47
2019-05-02T14:24:01.588Z,14.70
2019-05-02T14:26:08.240Z,14.77
2019-05-02T14:28:13.471Z,14.97
2019-05-02T14:30:35.712Z,14.43
2019-05-02T14:32:27.505Z,14.00
2019-05-02T14:34:48.585Z,13.37
2019-05-02T14:36:58.924Z,14.53
2019-05-02T14:39:02.284Z,15.77
2019-05-02T14:41:12.980Z,14.50
2019-05-02T14:43:38.099Z,14.43
2019-05-02T14:45:44.350Z,14.63
2019-05-02T14:47:57.577Z,14.87
2019-05-02T14:50:02.280Z,15.00
2019-05-02T14:52:07.029Z,15.23
2019-05-02T14:54:12.146Z,14.57
2019-05-02T14:56:22.942Z,14.60
2019-05-02T14:58:28.006Z,16.73
2019-05-02T15:00:39.520Z,16.77
2019-05-02T15:02:49.035Z,16.03
2019-05-02T15:04:52.271Z,15.90
2019-05-02T15:06:57.665Z,15.90
2019-05-02T15:09:03.750Z,17.27
2019-05-02T15:11:09.313Z,18.07
2019-05-02T15:13:14.667Z,17.60
2019-05-02T15:15:20.235Z,17.07
2019-05-02T15:17:28.108Z,16.20
2019-05-02T15:19:33.070Z,17.93
2019-05-02T15:21:46.947Z,17.97
2019-05-02T15:23:54.457Z,18.00
2019-05-02T15:25:58.379Z,18.07
2019-05-02T15:28:04.260Z,18.50
2019-05-02T15:30:10.649Z,18.93
2019-05-02T15:32:25.581Z,17.87
2019-05-02T15:34:48.287Z,17.77
2019-05-02T15:36:53.469Z,17.70
2019-05-02T15:41:09.527Z,18.83
2019-05-02T15:43:12.657Z,18.63
2019-05-02T15:45:20.341Z,19.23
2019-05-02T15:47:25.436Z,18.67
2019-05-02T15:49:36.547Z,17.73
2019-05-02T15:51:43.720Z,25.37
2019-05-02T15:54:08.465Z,22.07
2019-05-02T15:56:19.433Z,20.30
2019-05-02T15:58:26.056Z,19.13
2019-05-02T16:00:32.107Z,19.43
2019-05-02T16:02:42.107Z,18.77
2019-05-02T16:04:47.307Z,18.63
2019-05-02T16:06:52.948Z,20.17
2019-05-02T16:08:58.829Z,18.97
2019-05-02T16:11:08.871Z,19.60
2019-05-02T16:13:16.875Z,19.77
2019-05-02T16:15:22.215Z,18.83
2019-05-02T16:17:29.244Z,20.30
2019-05-02T16:19:38.600Z,20.13
2019-05-02T16:21:52.034Z,19.37
2019-05-02T16:24:15.331Z,20.53
2019-05-02T16:26:22.547Z,21.23
2019-05-02T16:28:28.020Z,21.43
2019-05-02T16:30:36.928Z,22.17
2019-05-02T16:32:44.261Z,22.80
2019-05-02T16:34:55.139Z,21.83
2019-05-02T16:37:13.497Z,21.90
2019-05-02T16:39:17.401Z,20.60
2019-05-02T16:41:23.203Z,21.87
2019-05-02T16:43:29.968Z,22.30
2019-05-02T16:45:35.602Z,23.80
2019-05-02T16:47:42.276Z,23.07
2019-05-02T16:49:53.347Z,22.87
2019-05-02T16:51:57.467Z,23.63
2019-05-02T16:54:05.058Z,23.10
2019-05-02T16:56:11.477Z,24.27
2019-05-02T16:58:16.823Z,25.30
2019-05-02T17:00:25.081Z,25.10
2019-05-02T17:02:32.277Z,25.47
2019-05-02T17:04:37.361Z,26.63
2019-05-02T17:06:42.858Z,28.07
2019-05-02T17:08:58.672Z,27.23
2019-05-02T17:11:15.371Z,28.77
2019-05-02T17:13:18.457Z,29.77
2019-05-02T17:15:31.451Z,24.80
2019-05-02T17:17:34.964Z,19.30
2019-05-02T17:19:40.434Z,24.47
2019-05-02T17:21:55.954Z,21.27
2019-05-02T17:23:54.343Z,11.03
2019-05-02T17:26:01.553Z,11.40
2019-05-02T17:28:10.569Z,11.27
2019-05-02T17:30:15.126Z,8.97
2019-05-02T17:32:20.255Z,8.67
2019-05-02T17:34:30.700Z,8.80
2019-05-02T17:36:33.081Z,8.17
2019-05-02T17:38:38.563Z,8.73
2019-05-02T17:40:44.359Z,8.43
2019-05-02T17:42:49.551Z,6.87
2019-05-02T17:44:59.327Z,6.97
2019-05-02T17:47:01.968Z,7.27
2019-05-02T17:49:07.732Z,7.90
2019-05-02T17:51:33.885Z,7.10
2019-05-02T17:53:41.214Z,6.83
2019-05-02T17:55:44.861Z,5.97
2019-05-02T17:57:51.609Z,6.33
2019-05-02T17:59:57.274Z,6.50
2019-05-02T18:02:06.553Z,5.40
2019-05-02T18:04:12.634Z,5.60
2019-05-02T18:06:17.387Z,5.77
2019-05-02T18:08:23.012Z,5.33
2019-05-02T18:10:28.520Z,5.53
2019-05-02T18:12:33.646Z,6.60
2019-05-02T18:14:39.143Z,6.97
2019-05-02T18:16:47.237Z,5.50
2019-05-02T18:18:52.248Z,6.27
2019-05-02T18:20:57.446Z,6.00
2019-05-02T18:23:05.752Z,6.00
2019-05-02T18:25:11.657Z,5.47
2019-05-02T18:27:16.707Z,5.70
2019-05-02T18:29:22.523Z,5.90
2019-05-02T18:31:27.968Z,6.40
2019-05-02T18:33:36.051Z,5.70
2019-05-02T18:35:45.193Z,6.33
2019-05-02T18:37:47.713Z,5.80
2019-05-02T18:39:55.935Z,6.60
2019-05-02T18:42:00.481Z,6.53
2019-05-02T18:44:05.778Z,6.07
2019-05-02T18:46:12.758Z,6.70
2019-05-02T18:48:18.461Z,6.70
2019-05-02T18:50:44.286Z,6.97
2019-05-02T18:52:48.089Z,6.43
2019-05-02T18:54:54.297Z,7.13
2019-05-02T18:56:59.870Z,7.07
2019-05-02T18:59:05.085Z,7.13
2019-05-02T19:01:14.012Z,7.40
2019-05-02T19:03:17.505Z,7.40
2019-05-02T19:05:22.993Z,7.57
2019-05-02T19:07:33.050Z,7.10
2019-05-02T19:09:34.888Z,7.97
2019-05-02T19:11:40.352Z,7.87
2019-05-02T19:13:46.094Z,7.77
2019-05-02T19:15:53.419Z,8.37
2019-05-02T19:17:58.788Z,8.17
2019-05-02T19:20:06.236Z,8.60
2019-05-02T19:22:13.186Z,8.50
2019-05-02T19:24:18.400Z,9.17
2019-05-02T19:26:23.847Z,9.40
2019-05-02T19:28:38.489Z,9.57
2019-05-02T19:30:44.123Z,9.20
2019-05-02T19:32:49.587Z,10.03
2019-05-02T19:34:57.757Z,9.63
2019-05-02T19:37:03.113Z,9.47
2019-05-02T19:39:10.593Z,9.83
2019-05-02T19:41:16.145Z,10.07
2019-05-02T19:43:23.083Z,11.23
2019-05-02T19:45:28.643Z,10.73
2019-05-02T19:47:33.709Z,10.47
2019-05-02T19:49:38.907Z,10.63
2019-05-02T19:51:45.076Z,10.67
2019-05-02T19:53:53.406Z,10.10
2019-05-02T19:56:01.257Z,10.53
2019-05-02T19:58:06.460Z,10.97
2019-05-02T20:00:12.193Z,10.73
2019-05-02T20:02:17.793Z,11.33
2019-05-02T20:04:23.562Z,10.93
2019-05-02T20:06:28.738Z,10.73
2019-05-02T20:08:34.356Z,11.10
2019-05-02T20:10:39.593Z,10.17
2019-05-02T20:12:48.378Z,11.23
2019-05-02T20:14:52.080Z,10.83
2019-05-02T20:17:02.078Z,10.63
2019-05-02T20:19:07.318Z,10.80
2019-05-02T20:21:27.238Z,10.73
2019-05-02T20:23:31.585Z,11.33
2019-05-02T20:25:38.953Z,11.00
2019-05-02T20:27:42.271Z,10.73
2019-05-02T20:29:47.450Z,11.23
2019-05-02T20:31:52.716Z,11.63
2019-05-02T20:33:58.135Z,11.70
2019-05-02T20:36:03.707Z,12.00
2019-05-02T20:38:11.136Z,12.20
2019-05-02T20:40:31.999Z,11.87
2019-05-02T20:42:37.600Z,11.67
2019-05-02T20:44:43.145Z,12.87
2019-05-02T20:46:48.648Z,13.27
2019-05-02T20:48:53.851Z,11.77
2019-05-02T20:50:59.713Z,12.63
2019-05-02T20:53:05.139Z,12.43
2019-05-02T20:55:12.282Z,12.77
2019-05-02T20:57:17.579Z,13.67
2019-05-02T20:59:22.838Z,12.87
2019-05-02T21:01:28.366Z,13.03
2019-05-02T21:03:33.559Z,12.30
2019-05-02T21:06:05.082Z,12.63
2019-05-02T21:08:29.467Z,14.00
2019-05-02T21:10:37.778Z,13.13
2019-05-02T21:12:43.109Z,12.77
2019-05-02T21:14:48.310Z,13.03
2019-05-02T21:16:53.480Z,13.93
2019-05-02T21:18:58.672Z,16.07
2019-05-02T21:21:05.115Z,20.33
2019-05-02T21:23:10.547Z,19.43
2019-05-02T21:25:17.051Z,19.73
2019-05-02T21:27:22.562Z,21.37
2019-05-02T21:29:28.047Z,18.87
2019-05-02T21:31:34.019Z,16.73
2019-05-02T21:33:42.527Z,17.23
2019-05-02T21:35:47.375Z,18.00
2019-05-02T21:37:52.636Z,16.90
2019-05-02T21:39:58.144Z,16.73
2019-05-02T21:42:03.331Z,16.43
2019-05-02T21:44:08.421Z,15.27
2019-05-02T21:46:13.656Z,15.30
2019-05-02T21:48:19.159Z,14.47
2019-05-02T21:50:42.731Z,14.27
2019-05-02T21:53:19.654Z,13.07
2019-05-02T21:55:42.830Z,12.20
2019-05-02T21:57:48.128Z,11.23
2019-05-02T21:59:53.789Z,11.77
2019-05-02T22:02:02.261Z,11.00
2019-05-02T22:04:07.096Z,10.43
2019-05-02T22:06:12.425Z,9.70
2019-05-02T22:08:17.593Z,10.73
2019-05-02T22:10:22.792Z,8.80
2019-05-02T22:12:27.937Z,8.50
2019-05-02T22:14:33.225Z,9.97
2019-05-02T22:16:38.411Z,8.60
2019-05-02T22:18:43.536Z,9.47
2019-05-02T22:20:48.999Z,8.83
2019-05-02T22:22:54.072Z,8.37
2019-05-02T22:24:59.084Z,7.97
2019-05-02T22:27:04.254Z,7.90
2019-05-02T22:29:09.723Z,6.67
2019-05-02T22:31:14.995Z,7.07
2019-05-02T22:33:22.178Z,7.60
2019-05-02T22:35:27.751Z,6.83
2019-05-02T22:37:32.959Z,6.20
2019-05-02T22:40:03.635Z,5.83
2019-05-02T22:42:08.885Z,5.93
2019-05-02T22:44:14.194Z,5.63
2019-05-02T22:46:38.576Z,6.37
2019-05-02T22:48:44.081Z,6.30
2019-05-02T22:50:49.567Z,6.63
2019-05-02T22:52:54.620Z,6.10
2019-05-02T22:55:00.020Z,5.87
2019-05-02T22:57:05.825Z,6.13
2019-05-02T22:59:11.021Z,5.33
2019-05-02T23:01:16.187Z,5.17
2019-05-02T23:03:24.198Z,4.50
2019-05-02T23:05:29.108Z,4.60
2019-05-02T23:07:34.568Z,4.50
2019-05-02T23:09:43.433Z,4.40
2019-05-02T23:11:47.549Z,4.60
2019-05-02T23:13:52.998Z,4.67
2019-05-02T23:15:58.390Z,3.80
2019-05-02T23:18:03.564Z,4.03
2019-05-02T23:20:08.750Z,4.27
2019-05-02T23:22:13.926Z,4.47
2019-05-02T23:24:39.407Z,4.30
2019-05-02T23:27:03.715Z,4.67
2019-05-02T23:29:09.851Z,4.40
2019-05-02T23:31:14.956Z,4.63
2019-05-02T23:33:23.418Z,4.33
2019-05-02T23:35:27.827Z,4.53
2019-05-02T23:37:32.923Z,4.70
2019-05-02T23:39:38.630Z,5.37
2019-05-02T23:41:43.803Z,5.00
2019-05-02T23:43:49.326Z,4.23
2019-05-02T23:45:54.804Z,4.67
2019-05-02T23:48:02.022Z,4.60
2019-05-02T23:50:07.542Z,4.90
2019-05-02T23:52:12.944Z,4.67
2019-05-02T23:54:18.692Z,5.47
2019-05-02T23:56:24.135Z,5.50
2019-05-02T23:58:29.165Z,6.00
